Time;durP1;ratioP1;P1;durP2;ratioP2;P2;SDS_P1;SDS_P2;PMS_P1;PMS_P2;Temp;Humidity;BMP_temperature;BMP_pressure;BME280_temperature;BME280_humidity;BME280_pressure;Samples;Min_cycle;Max_cycle;Signal;HPM_P1;HPM_P2
2023/11/05 00:00:37;;;;;;;;;16.00;13.00;;;;;9.20;100.00;97558.81;6315236;20;2819046;-48
2023/11/05 00:03:07;;;;;;;;;14.00;12.67;;;;;9.24;100.00;97564.72;6281990;20;3542126;-48
2023/11/05 00:05:35;;;;;;;;;14.00;12.00;;;;;9.31;100.00;97557.84;6317597;20;2789366;-47
2023/11/05 00:08:04;;;;;;;;;15.00;13.00;;;;;9.27;100.00;97558.25;6282930;20;3537527;-47
2023/11/05 00:10:32;;;;;;;;;15.00;15.00;;;;;9.45;100.00;97557.47;6281141;20;2801450;-48
2023/11/05 00:13:01;;;;;;;;;15.00;15.00;;;;;9.59;100.00;97552.66;6280971;20;3536772;-47
2023/11/05 00:15:29;;;;;;;;;13.00;12.00;;;;;9.63;100.00;97552.22;6283199;20;2792040;-48
2023/11/05 00:17:57;;;;;;;;;15.00;15.00;;;;;9.70;100.00;97549.84;6285333;20;2805070;-47
2023/11/05 00:20:26;;;;;;;;;14.67;13.67;;;;;9.57;100.00;97538.56;6283674;20;2796156;-47
2023/11/05 00:22:54;;;;;;;;;15.00;15.00;;;;;9.64;100.00;97550.41;6311858;20;2796253;-44
2023/11/05 00:25:23;;;;;;;;;16.67;14.67;;;;;9.71;100.00;97550.69;6280465;20;3538811;-39
2023/11/05 00:27:51;;;;;;;;;17.00;14.00;;;;;9.83;100.00;97545.03;6316835;20;2784687;-38
2023/11/05 00:30:20;;;;;;;;;14.67;12.67;;;;;9.84;100.00;97544.03;6281566;20;3537808;-43
2023/11/05 00:32:49;;;;;;;;;14.00;13.00;;;;;9.76;100.00;97543.91;6280008;20;3527597;-45
2023/11/05 00:35:17;;;;;;;;;15.00;15.00;;;;;9.92;100.00;97535.28;6313431;20;2799222;-47
2023/11/05 00:37:45;;;;;;;;;8.25;6.25;;;;;9.89;100.00;97536.41;6301457;20;1809256;-45
2023/11/05 00:40:14;;;;;;;;;16.67;15.33;;;;;9.77;100.00;97534.88;6311757;20;3534654;-46
2023/11/05 00:42:42;;;;;;;;;11.00;9.00;;;;;9.95;100.00;97542.19;6277622;20;2780626;-45
2023/11/05 00:45:10;;;;;;;;;13.50;13.50;;;;;9.99;100.00;97540.94;6283262;20;2794065;-45
2023/11/05 00:47:39;;;;;;;;;13.33;11.33;;;;;9.88;100.00;97536.56;6278827;20;3509688;-45
2023/11/05 00:50:07;;;;;;;;;14.50;12.00;;;;;9.95;100.00;97531.47;6314468;20;2808602;-46
2023/11/05 00:52:35;;;;;;;;;14.00;13.00;;;;;10.10;100.00;97522.81;6284435;20;2789891;-46
2023/11/05 00:55:04;;;;;;;;;12.33;12.33;;;;;10.03;100.00;97521.72;6282433;20;2789092;-46
2023/11/05 00:57:33;;;;;;;;;14.67;13.33;;;;;10.03;100.00;97534.28;6309512;20;3537753;-46
2023/11/05 01:00:01;;;;;;;;;14.00;10.50;;;;;9.97;100.00;97530.34;6314285;20;2790888;-46
2023/11/05 01:02:39;;;;;;;;;12.00;10.00;;;;;10.02;100.00;97540.63;6277203;20;2794166;-46
2023/11/05 01:05:08;;;;;;;;;15.00;13.00;;;;;10.28;100.00;97539.03;6314944;20;2798288;-48
2023/11/05 01:07:37;;;;;;;;;14.33;14.33;;;;;9.88;100.00;97540.09;6281333;20;3514218;-46
2023/11/05 01:10:06;;;;;;;;;17.00;13.00;;;;;10.16;100.00;97532.13;6314921;20;2809753;-45
2023/11/05 01:12:35;;;;;;;;;14.67;14.67;;;;;10.07;100.00;97530.31;6278935;20;2803431;-46
2023/11/05 01:15:03;;;;;;;;;13.00;13.00;;;;;10.14;100.00;97530.56;6309072;20;2786743;-48
2023/11/05 01:17:32;;;;;;;;;12.00;12.00;;;;;10.19;100.00;97536.34;6278010;20;2796160;-45
2023/11/05 01:20:00;;;;;;;;;11.50;10.50;;;;;10.01;100.00;97536.28;6316272;20;2788871;-48
2023/11/05 01:22:28;;;;;;;;;9.00;8.00;;;;;9.97;100.00;97524.97;6284153;20;2640975;-48
2023/11/05 01:24:56;;;;;;;;;14.50;13.00;;;;;9.87;100.00;97525.00;6315557;20;2794033;-47
2023/11/05 01:27:25;;;;;;;;;11.00;10.00;;;;;9.93;100.00;97538.81;6304801;20;2786797;-45
2023/11/05 01:29:53;;;;;;;;;18.00;13.00;;;;;10.01;100.00;97530.91;6279125;20;2796175;-45
2023/11/05 01:32:21;;;;;;;;;14.50;10.50;;;;;9.83;100.00;97517.38;6277488;20;2785866;-45
2023/11/05 01:34:50;;;;;;;;;7.00;7.00;;;;;9.91;100.00;97520.19;6301878;20;1812910;-48
2023/11/05 01:37:17;;;;;;;;;8.50;8.00;;;;;9.77;100.00;97512.59;6317952;20;2746103;-45
2023/11/05 01:39:46;;;;;;;;;13.00;13.00;;;;;9.87;100.00;97519.66;6285736;20;2794113;-45
2023/11/05 01:42:16;;;;;;;;;13.20;8.80;;;;;9.91;100.00;97505.97;6340416;20;2768015;-46
2023/11/05 01:44:44;;;;;;;;;11.00;10.00;;;;;9.87;100.00;97506.25;6282602;20;2787134;-46
2023/11/05 01:47:14;;;;;;;;;13.40;10.20;;;;;9.71;100.00;97497.94;6305704;20;2786759;-46
2023/11/05 01:49:43;;;;;;;;;7.25;5.00;;;;;9.89;100.00;97493.53;6305301;20;1805349;-46
2023/11/05 01:52:13;;;;;;;;;13.40;10.60;;;;;9.75;100.00;97477.06;6338957;20;2789976;-46
2023/11/05 01:54:42;;;;;;;;;9.50;8.50;;;;;9.84;100.00;97479.72;6289357;20;2762779;-45
2023/11/05 01:57:13;;;;;;;;;14.20;10.00;;;;;9.83;100.00;97477.19;6306653;20;2794091;-45
2023/11/05 01:59:41;;;;;;;;;9.50;9.50;;;;;9.83;100.00;97475.34;6282434;20;2763918;-46
2023/11/05 02:02:10;;;;;;;;;9.00;9.00;;;;;9.86;100.00;97471.53;6286083;20;2744127;-45
2023/11/05 02:04:38;;;;;;;;;10.00;10.00;;;;;9.95;100.00;97469.81;6282706;20;2792347;-47
2023/11/05 02:07:06;;;;;;;;;13.00;10.00;;;;;9.84;100.00;97471.66;6283547;20;2789940;-46
2023/11/05 02:09:36;;;;;;;;;9.20;7.20;;;;;9.81;100.00;97466.59;6312321;20;2739901;-45
2023/11/05 02:12:04;;;;;;;;;14.00;9.50;;;;;9.82;100.00;97468.31;6313236;20;2781543;-45
2023/11/05 02:14:32;;;;;;;;;8.00;8.00;;;;;9.85;100.00;97459.97;6285089;20;2744142;-44
2023/11/05 02:17:02;;;;;;;;;13.20;9.00;;;;;9.93;100.00;97455.72;6307834;20;2777382;-44
2023/11/05 02:19:30;;;;;;;;;10.50;8.00;;;;;9.91;100.00;97455.03;6283858;20;2750315;-45
2023/11/05 02:22:03;;;;;;;;;8.00;8.00;;;;;9.86;100.00;97464.34;6276961;20;2764952;-46
2023/11/05 02:24:33;;;;;;;;;12.20;10.20;;;;;9.91;100.00;97466.59;6306825;20;2782594;-46
2023/11/05 02:27:01;;;;;;;;;8.00;8.00;;;;;9.75;100.00;97461.81;6285777;20;2756549;-45
2023/11/05 02:29:30;;;;;;;;;10.40;7.80;;;;;9.78;100.00;97463.38;6307662;20;2749306;-45
2023/11/05 02:32:05;;;;;;;;;9.43;7.86;;;;;9.89;100.00;97469.41;6326697;20;1803882;-44
2023/11/05 02:34:33;;;;;;;;;11.00;10.00;;;;;9.73;100.00;97462.97;6317685;20;2777373;-44
2023/11/05 02:37:01;;;;;;;;;6.00;6.00;;;;;9.86;100.00;97458.97;6290440;20;2741947;-45
2023/11/05 02:39:33;;;;;;;;;8.00;6.29;;;;;9.95;100.00;97445.69;6326029;20;2729483;-44
2023/11/05 02:42:00;;;;;;;;;6.00;6.00;;;;;9.95;100.00;97445.69;6318678;20;2728487;-44
2023/11/05 02:44:28;;;;;;;;;8.00;8.00;;;;;9.83;100.00;97437.00;6286884;20;2734661;-45
2023/11/05 02:46:56;;;;;;;;;7.00;7.00;;;;;9.89;100.00;97439.06;6287068;20;2732686;-44
2023/11/05 02:49:24;;;;;;;;;8.00;8.00;;;;;9.98;100.00;97440.03;6285164;20;2746137;-46
2023/11/05 02:51:52;;;;;;;;;8.00;5.00;;;;;9.98;100.00;97435.53;6285879;20;2741946;-46
2023/11/05 02:54:20;;;;;;;;;13.00;6.00;;;;;9.98;100.00;97450.75;6284889;20;2758723;-44
2023/11/05 02:56:48;;;;;;;;;7.00;7.00;;;;;9.83;100.00;97448.56;6294130;20;2740974;-45
2023/11/05 02:59:22;;;;;;;;;9.50;6.00;;;;;9.79;100.00;97440.94;6301040;20;1808700;-44
2023/11/05 03:01:49;;;;;;;;;7.50;7.00;;;;;9.62;100.00;97435.34;6317293;20;2748360;-44
2023/11/05 03:04:18;;;;;;;;;9.00;6.00;;;;;9.80;100.00;97442.66;6284547;20;2739931;-44
2023/11/05 03:06:50;;;;;;;;;8.00;8.00;;;;;9.80;100.00;97446.16;6287205;20;2733593;-44
2023/11/05 03:09:21;;;;;;;;;7.50;7.00;;;;;9.74;100.00;97444.06;6282812;20;2728411;-44
2023/11/05 03:11:51;;;;;;;;;7.00;6.00;;;;;9.77;100.00;97438.41;6285541;20;2741962;-44
2023/11/05 03:14:22;;;;;;;;;8.00;8.00;;;;;9.97;100.00;97427.63;6325948;20;2735720;-44
2023/11/05 03:16:52;;;;;;;;;9.25;9.00;;;;;9.78;100.00;97433.91;6343843;20;2759631;-44
2023/11/05 03:19:20;;;;;;;;;6.00;6.00;;;;;9.84;100.00;97438.66;6285111;20;2738934;-46
2023/11/05 03:21:48;;;;;;;;;8.00;7.00;;;;;10.01;100.00;97429.03;6281068;20;2734654;-46
2023/11/05 03:24:16;;;;;;;;;14.00;8.00;;;;;10.01;100.00;97429.03;6282577;20;2758609;-45
2023/11/05 03:26:44;;;;;;;;;9.00;8.00;;;;;9.78;100.00;97415.13;6282135;20;2751359;-46
2023/11/05 03:29:12;;;;;;;;;5.75;5.50;;;;;9.91;100.00;97414.81;6304470;20;1813353;-44
2023/11/05 03:31:42;;;;;;;;;8.60;8.00;;;;;9.91;100.00;97396.91;6334977;20;2756556;-45
2023/11/05 03:34:10;;;;;;;;;8.00;6.00;;;;;9.72;100.00;97397.81;6283835;20;2740915;-45
2023/11/05 03:36:38;;;;;;;;;10.00;9.00;;;;;10.00;100.00;97389.81;6281608;20;2774627;-44
2023/11/05 03:39:06;;;;;;;;;9.00;6.50;;;;;9.70;100.00;97383.72;6285659;20;2752411;-48
2023/11/05 03:41:34;;;;;;;;;8.50;6.00;;;;;9.93;100.00;97389.56;6283982;20;2748192;-46
2023/11/05 03:44:03;;;;;;;;;10.50;7.00;;;;;9.60;100.00;97383.72;6283929;20;2740902;-43
2023/11/05 03:46:30;;;;;;;;;9.00;8.00;;;;;9.82;100.00;97390.59;6285441;20;2744029;-47
2023/11/05 03:48:58;;;;;;;;;8.00;8.00;;;;;9.59;100.00;97390.09;6285258;20;2753482;-46
2023/11/05 03:51:28;;;;;;;;;9.60;7.00;;;;;9.84;100.00;97385.91;6307746;20;2750319;-44
2023/11/05 03:53:56;;;;;;;;;8.00;6.50;;;;;9.54;100.00;97384.31;6285202;20;2748217;-44
2023/11/05 03:56:24;;;;;;;;;10.00;8.50;;;;;9.54;100.00;97388.84;6281816;20;2757628;-44
2023/11/05 03:58:52;;;;;;;;;10.50;8.00;;;;;9.79;100.00;97377.47;6285272;20;2741946;-45
2023/11/05 04:01:22;;;;;;;;;9.20;9.20;;;;;9.68;100.00;97391.03;6303601;20;2754451;-43
2023/11/05 04:03:52;;;;;;;;;11.20;8.60;;;;;9.53;100.00;97381.78;6338003;20;2764849;-44
2023/11/05 04:06:20;;;;;;;;;13.00;11.00;;;;;9.44;100.00;97375.47;6280742;20;2794064;-44
2023/11/05 04:08:47;;;;;;;;;12.00;11.00;;;;;9.68;100.00;97369.59;6283254;20;2788864;-45
2023/11/05 04:11:16;;;;;;;;;13.00;11.00;;;;;9.61;100.00;97353.28;6283584;20;2804489;-45
2023/11/05 04:13:46;;;;;;;;;21.00;14.67;;;;;9.53;100.00;97352.31;6283542;20;3553384;-43
2023/11/05 04:16:15;;;;;;;;;29.00;21.00;;;;;9.51;100.00;97344.44;6279942;20;2857602;-44
2023/11/05 04:18:45;;;;;;;;;22.00;15.00;;;;;9.54;100.00;97325.38;6284304;20;2823232;-44
2023/11/05 04:21:15;;;;;;;;;43.00;35.00;;;;;9.42;100.00;97323.88;6278589;20;2861416;-44
2023/11/05 04:23:44;;;;;;;;;36.50;31.00;;;;;9.45;100.00;97313.72;6313791;20;2842067;-45
2023/11/05 04:26:13;;;;;;;;;53.00;41.00;;;;;9.44;100.00;97295.94;6282159;20;3498276;-44
2023/11/05 04:28:41;;;;;;;;;10.00;9.50;;;;;9.39;100.00;97292.03;6312123;20;2762820;-45
2023/11/05 04:31:10;;;;;;;;;21.50;19.00;;;;;9.35;100.00;97280.78;6279581;20;2836778;-45
2023/11/05 04:33:39;;;;;;;;;22.50;20.50;;;;;9.66;100.00;97281.34;6280350;20;2848582;-45
2023/11/05 04:36:08;;;;;;;;;16.50;14.50;;;;;9.38;100.00;97282.31;6283342;20;2805452;-44
2023/11/05 04:38:37;;;;;;;;;16.33;15.67;;;;;9.38;100.00;97267.09;6279547;20;3546070;-44
2023/11/05 04:41:05;;;;;;;;;18.00;18.00;;;;;9.62;100.00;97273.75;6278903;20;2824260;-45
2023/11/05 04:43:34;;;;;;;;;47.00;39.00;;;;;9.53;100.00;97263.91;6280240;20;2846183;-46
2023/11/05 04:46:03;;;;;;;;;43.00;34.67;;;;;9.40;100.00;97253.53;6280241;20;3608711;-44
2023/11/05 04:48:32;;;;;;;;;23.50;20.00;;;;;9.14;100.00;97253.38;6279857;20;2837865;-43
2023/11/05 04:51:02;;;;;;;;;24.50;23.00;;;;;9.30;100.00;97240.19;6278290;20;2842979;-45
2023/11/05 04:53:31;;;;;;;;;26.50;22.50;;;;;9.58;100.00;97237.53;6279955;20;2835721;-44
2023/11/05 04:56:01;;;;;;;;;42.00;36.00;;;;;9.17;100.00;97242.34;6280887;20;2872434;-44
2023/11/05 04:58:31;;;;;;;;;27.50;24.00;;;;;9.49;100.00;97247.31;6309277;20;2848287;-46
2023/11/05 05:01:00;;;;;;;;;29.50;24.00;;;;;9.42;100.00;97247.03;6279161;20;2854533;-48
2023/11/05 05:03:30;;;;;;;;;44.67;33.00;;;;;9.25;100.00;97250.50;6281182;20;2873211;-46
2023/11/05 05:05:59;;;;;;;;;32.33;26.67;;;;;9.48;100.00;97244.75;6311228;20;2865979;-44
2023/11/05 05:08:28;;;;;;;;;25.50;21.50;;;;;9.60;100.00;97247.09;6312377;20;2852479;-46
2023/11/05 05:10:57;;;;;;;;;22.50;22.50;;;;;9.27;100.00;97243.16;6285602;20;2848398;-47
2023/11/05 05:13:26;;;;;;;;;19.00;17.50;;;;;9.27;100.00;97237.81;6285717;20;2831530;-45
2023/11/05 05:15:55;;;;;;;;;26.00;25.50;;;;;9.26;100.00;97236.09;6283881;20;2845079;-49
2023/11/05 05:18:24;;;;;;;;;22.50;22.50;;;;;9.21;100.00;97233.03;6286034;20;2844090;-47
2023/11/05 05:20:52;;;;;;;;;21.00;18.00;;;;;9.35;100.00;97229.88;6283156;20;2496227;-47
2023/11/05 05:23:21;;;;;;;;;24.00;21.00;;;;;9.25;100.00;97222.88;6283658;20;2830749;-46
2023/11/05 05:25:49;;;;;;;;;22.50;19.00;;;;;9.18;100.00;97207.38;6283552;20;2500406;-46
2023/11/05 05:28:18;;;;;;;;;50.33;40.33;;;;;9.25;100.00;97201.47;6285069;20;2852415;-39
2023/11/05 05:30:47;;;;;;;;;20.50;20.00;;;;;9.21;100.00;97212.44;6313778;20;2483599;-38
2023/11/05 05:33:15;;;;;;;;;19.00;16.00;;;;;9.21;100.00;97214.28;6285349;20;3560665;-45
2023/11/05 05:35:43;;;;;;;;;18.00;18.00;;;;;9.31;100.00;97223.13;6282577;20;2500313;-45
2023/11/05 05:38:12;;;;;;;;;22.50;21.50;;;;;9.51;100.00;97228.41;6286009;20;2839948;-48
2023/11/05 05:40:40;;;;;;;;;26.50;23.50;;;;;9.38;100.00;97226.91;6282052;20;2500235;-45
2023/11/05 05:43:09;;;;;;;;;26.00;24.50;;;;;9.23;100.00;97226.53;6284357;20;2845075;-45
2023/11/05 05:45:38;;;;;;;;;23.00;19.50;;;;;9.21;100.00;97225.00;6283790;20;2833620;-45
2023/11/05 05:48:07;;;;;;;;;22.50;19.50;;;;;9.33;100.00;97223.00;6283548;20;2841097;-48
2023/11/05 05:50:36;;;;;;;;;26.00;23.00;;;;;9.24;100.00;97224.69;6283083;20;2844128;-46
2023/11/05 05:53:05;;;;;;;;;17.33;17.33;;;;;9.28;100.00;97233.31;6284492;20;3569081;-46
2023/11/05 05:55:33;;;;;;;;;22.00;21.50;;;;;9.45;100.00;97244.09;6282739;20;2846205;-46
2023/11/05 05:58:03;;;;;;;;;20.00;16.33;;;;;9.19;100.00;97240.38;6283584;20;3565912;-45
2023/11/05 06:00:32;;;;;;;;;21.00;18.00;;;;;9.35;100.00;97240.59;6314146;20;2839226;-46
2023/11/05 06:03:00;;;;;;;;;19.00;17.50;;;;;10.66;100.00;97227.75;6282757;20;2498320;-45
2023/11/05 06:05:29;;;;;;;;;20.00;20.00;;;;;10.24;100.00;97226.53;6279845;20;2494176;-46
2023/11/05 06:07:58;;;;;;;;;23.50;22.00;;;;;10.01;100.00;97218.09;6284860;20;2848197;-49
2023/11/05 06:10:27;;;;;;;;;25.50;19.50;;;;;9.55;100.00;97219.91;6283537;20;2835043;-45
2023/11/05 06:12:56;;;;;;;;;17.50;15.50;;;;;9.88;100.00;97204.22;6283719;20;2815924;-49
2023/11/05 06:15:24;;;;;;;;;18.50;18.50;;;;;10.06;100.00;97197.03;6280311;20;2491992;-46
2023/11/05 06:17:51;;;;;;;;;20.00;17.00;;;;;10.14;100.00;97190.03;6283000;20;2489985;-49
2023/11/05 06:20:20;;;;;;;;;21.67;19.00;;;;;10.31;100.00;97184.72;6280995;20;3577590;-50
2023/11/05 06:22:53;;;;;;;;;22.00;19.50;;;;;10.18;100.00;97168.16;6284460;20;2836125;-46
2023/11/05 06:25:21;;;;;;;;;19.00;16.00;;;;;9.67;100.00;97134.84;6286273;20;2827472;-46
2023/11/05 06:27:50;;;;;;;;;15.67;14.00;;;;;9.66;100.00;97100.97;6281389;20;3531567;-47
2023/11/05 06:30:18;;;;;;;;;24.00;16.00;;;;;9.75;100.00;97096.56;6314104;20;2836739;-48
2023/11/05 06:32:47;;;;;;;;;14.33;14.33;;;;;9.72;100.00;97123.66;6283647;20;3535711;-45
2023/11/05 06:35:17;;;;;;;;;16.33;15.33;;;;;9.51;100.00;97123.97;6281289;20;3541918;-48
2023/11/05 06:37:45;;;;;;;;;17.00;17.00;;;;;9.95;100.00;97145.47;6278876;20;2496140;-49
2023/11/05 06:40:14;;;;;;;;;21.00;18.00;;;;;10.08;100.00;97132.53;6279951;20;2829476;-46
2023/11/05 06:42:43;;;;;;;;;22.33;16.33;;;;;9.82;100.00;97144.03;6280934;20;3567066;-49
2023/11/05 06:45:12;;;;;;;;;24.50;24.00;;;;;9.95;100.00;97140.13;6281469;20;2848341;-45
2023/11/05 06:47:42;;;;;;;;;21.50;20.00;;;;;9.81;100.00;97123.56;6283472;20;2834632;-44
2023/11/05 06:50:12;;;;;;;;;39.00;33.00;;;;;10.11;100.00;97102.75;6278025;20;2861894;-44
2023/11/05 06:52:40;;;;;;;;;18.50;16.00;;;;;9.90;100.00;97095.03;6308653;20;2487822;-45
2023/11/05 06:55:09;;;;;;;;;24.67;16.67;;;;;9.78;100.00;97086.38;6283205;20;3579424;-45
2023/11/05 06:57:38;;;;;;;;;33.00;31.00;;;;;9.97;100.00;97076.47;6283447;20;3586711;-48
2023/11/05 07:00:09;;;;;;;;;23.50;23.00;;;;;10.35;100.00;97071.75;6281957;20;2844057;-45
2023/11/05 07:02:38;;;;;;;;;29.33;27.33;;;;;10.63;100.00;97062.53;6279149;20;2850328;-45
2023/11/05 07:05:07;;;;;;;;;22.00;16.50;;;;;10.32;100.00;97046.97;6313757;20;2813967;-44
2023/11/05 07:07:36;;;;;;;;;32.50;31.00;;;;;10.03;100.00;97047.22;6282129;20;2850312;-44
2023/11/05 07:10:07;;;;;;;;;38.50;32.50;;;;;10.01;100.00;97025.09;6283918;20;2850271;-46
2023/11/05 07:12:41;;;;;;;;;192.33;159.67;;;;;10.31;100.00;97020.28;6278479;20;3723194;-45
2023/11/05 07:15:11;;;;;;;;;61.67;47.00;;;;;10.16;100.00;97011.94;6281959;20;3633768;-39
2023/11/05 07:17:40;;;;;;;;;57.33;45.67;;;;;10.22;100.00;96994.41;6315537;20;3632127;-39
2023/11/05 07:20:13;;;;;;;;;33.00;25.00;;;;;10.16;100.00;96990.50;6279369;20;3613914;-49
2023/11/05 07:22:46;;;;;;;;;41.00;35.00;;;;;10.33;100.00;96997.66;6307411;20;3601354;-44
2023/11/05 07:25:15;;;;;;;;;15.50;14.00;;;;;10.31;100.00;96980.88;6317507;20;2809708;-45
2023/11/05 07:27:44;;;;;;;;;20.00;16.50;;;;;10.18;100.00;96985.81;6282387;20;2498226;-46
2023/11/05 07:30:14;;;;;;;;;14.33;12.33;;;;;10.26;100.00;96975.13;6283418;20;2794157;-44
2023/11/05 07:32:42;;;;;;;;;12.00;11.00;;;;;10.05;100.00;96970.16;6319685;20;2683622;-48
2023/11/05 07:35:10;;;;;;;;;12.00;11.00;;;;;9.88;100.00;96969.22;6311239;20;2790906;-47
2023/11/05 07:37:38;;;;;;;;;14.00;12.00;;;;;10.39;100.00;96971.22;6284353;20;2788859;-49
2023/11/05 07:40:08;;;;;;;;;12.67;8.67;;;;;10.47;100.00;96976.63;6282452;20;2773210;-47
2023/11/05 07:42:36;;;;;;;;;14.50;13.00;;;;;10.13;100.00;96977.41;6308877;20;2794142;-48
2023/11/05 07:45:05;;;;;;;;;11.00;9.50;;;;;10.10;100.00;96970.50;6280741;20;2773310;-49
2023/11/05 07:47:39;;;;;;;;;14.60;11.20;;;;;10.20;100.00;96961.53;6306030;20;2794162;-39
2023/11/05 07:50:12;;;;;;;;;10.00;8.00;;;;;10.24;100.00;96957.53;6290446;20;2763508;-39
2023/11/05 07:52:42;;;;;;;;;15.67;14.33;;;;;10.22;100.00;96943.47;6281111;20;3537771;-39
2023/11/05 07:55:12;;;;;;;;;51.67;40.67;;;;;10.53;100.00;96938.41;6311865;20;3600274;-40
2023/11/05 07:57:43;;;;;;;;;70.33;50.00;;;;;10.25;100.00;96932.41;6312720;20;3630553;-43
2023/11/05 08:00:17;;;;;;;;;71.50;50.00;;;;;10.05;100.00;96929.09;6314047;20;3652819;-44
2023/11/05 08:02:47;;;;;;;;;25.50;22.00;;;;;10.09;100.00;96922.44;6313507;20;2837788;-50
2023/11/05 08:05:17;;;;;;;;;141.00;103.67;;;;;10.13;100.00;96915.75;6279328;20;3716915;-47
2023/11/05 08:07:47;;;;;;;;;27.33;23.33;;;;;10.19;100.00;96909.75;6280981;20;3565896;-48
2023/11/05 08:10:18;;;;;;;;;26.00;21.50;;;;;9.93;100.00;96906.28;6280666;20;2843015;-50
2023/11/05 08:12:47;;;;;;;;;16.00;14.00;;;;;10.01;100.00;96914.34;6283695;20;2801443;-51
2023/11/05 08:15:15;;;;;;;;;9.00;9.00;;;;;9.98;100.00;96901.25;6319556;20;2755478;-47
2023/11/05 08:17:43;;;;;;;;;11.50;11.50;;;;;10.16;100.00;96890.44;6284259;20;2794102;-51
2023/11/05 08:20:12;;;;;;;;;5.50;5.50;;;;;10.06;100.00;96895.97;6288864;20;2739871;-51
2023/11/05 08:22:43;;;;;;;;;16.00;14.00;;;;;10.11;100.00;96893.63;6281112;20;3548302;-51
2023/11/05 08:25:13;;;;;;;;;6.00;6.00;;;;;10.23;100.00;96880.78;6318155;20;2739869;-49
2023/11/05 08:27:43;;;;;;;;;13.67;13.67;;;;;10.30;100.00;96887.22;6281704;20;3523207;-49
2023/11/05 08:30:15;;;;;;;;;22.33;20.33;;;;;10.48;100.00;96871.00;6314888;20;3566986;-46
2023/11/05 08:32:44;;;;;;;;;9.00;9.00;;;;;10.49;100.00;96867.31;6310783;20;2757614;-49
2023/11/05 08:35:13;;;;;;;;;13.33;10.33;;;;;10.68;100.00;96864.34;6283088;20;2787944;-48
2023/11/05 08:37:41;;;;;;;;;16.00;15.00;;;;;10.45;100.00;96857.91;6309289;20;2498207;-47
2023/11/05 08:40:13;;;;;;;;;12.00;12.00;;;;;10.74;100.00;96869.06;6282485;20;2795228;-48
2023/11/05 08:42:43;;;;;;;;;9.50;7.50;;;;;10.44;100.00;96861.59;6298751;20;2744102;-49
2023/11/05 08:45:14;;;;;;;;;10.00;10.00;;;;;10.62;100.00;96873.06;6279904;20;2784799;-48
2023/11/05 08:47:43;;;;;;;;;13.00;11.00;;;;;10.53;100.00;96871.34;6282924;20;2792040;-52
2023/11/05 08:50:11;;;;;;;;;12.00;12.00;;;;;10.56;100.00;96873.72;6314795;20;2788962;-50
2023/11/05 08:52:39;;;;;;;;;14.33;12.00;;;;;10.66;100.00;96873.56;6278920;20;2794072;-50
2023/11/05 08:55:11;;;;;;;;;11.50;11.00;;;;;10.77;100.00;96870.56;6315825;20;2788829;-46
2023/11/05 08:57:40;;;;;;;;;10.00;7.00;;;;;10.79;100.00;96856.97;6283983;20;2752962;-49
2023/11/05 09:00:12;;;;;;;;;8.50;7.00;;;;;10.84;100.00;96854.63;6329390;20;1801348;-50
2023/11/05 09:02:41;;;;;;;;;8.50;5.00;;;;;11.12;100.00;96858.69;6282697;20;2747176;-53
2023/11/05 09:05:10;;;;;;;;;6.00;5.00;;;;;10.91;100.00;96852.97;6285345;20;2744047;-49
2023/11/05 09:07:38;;;;;;;;;10.00;7.50;;;;;11.20;100.00;96847.94;6285049;20;2769157;-53
2023/11/05 09:10:09;;;;;;;;;9.00;6.60;;;;;11.12;100.00;96856.00;6309832;20;2739951;-48
2023/11/05 09:12:38;;;;;;;;;8.00;7.00;;;;;11.09;100.00;96842.91;6314726;20;2739931;-52
2023/11/05 09:15:07;;;;;;;;;6.50;4.00;;;;;11.14;100.00;96845.09;6285088;20;2746120;-44
2023/11/05 09:17:35;;;;;;;;;3.00;3.00;;;;;11.04;100.00;96836.38;6285021;20;2736178;-45
2023/11/05 09:20:08;;;;;;;;;4.00;3.50;;;;;11.13;100.00;96830.81;6282681;20;2744146;-45
2023/11/05 09:22:41;;;;;;;;;6.00;5.00;;;;;11.07;100.00;96828.81;6275680;20;2750349;-40
2023/11/05 09:25:10;;;;;;;;;4.00;4.00;;;;;11.24;100.00;96820.75;6285496;20;2754642;-40
2023/11/05 09:27:39;;;;;;;;;3.50;3.00;;;;;11.20;100.00;96821.09;6282521;20;2749239;-39
2023/11/05 09:30:14;;;;;;;;;2.00;2.00;;;;;11.28;100.00;96812.19;6285749;20;2739926;-40
2023/11/05 09:32:44;;;;;;;;;3.00;2.00;;;;;11.22;100.00;96807.50;6281417;20;2744473;-40
2023/11/05 09:35:13;;;;;;;;;2.25;2.00;;;;;11.17;100.00;96805.31;6296512;20;1803496;-41
2023/11/05 09:37:46;;;;;;;;;3.71;3.71;;;;;11.25;100.00;96811.69;6353966;20;1794093;-42
2023/11/05 09:40:16;;;;;;;;;2.00;2.00;;;;;11.06;100.00;96796.75;6314212;20;2743072;-40
2023/11/05 09:43:04;;;;;;;;;2.00;2.00;;;;;11.51;100.00;96809.63;6279918;20;2744104;-39
2023/11/05 09:45:34;;;;;;;;;2.00;2.00;;;;;11.08;100.00;96822.41;6281907;20;2753408;-40
2023/11/05 09:48:12;;;;;;;;;5.00;4.00;;;;;11.18;100.00;96816.88;6280470;20;2746113;-40
2023/11/05 09:50:42;;;;;;;;;3.00;3.00;;;;;11.13;100.00;96829.97;6285281;20;2748211;-44
2023/11/05 09:53:17;;;;;;;;;3.75;2.25;;;;;11.16;100.00;96832.31;6296498;20;1803967;-44
2023/11/05 09:55:47;;;;;;;;;1.75;1.75;;;;;11.34;100.00;96843.72;6336479;20;1803528;-46
2023/11/05 09:58:16;;;;;;;;;4.00;2.00;;;;;11.31;100.00;96835.19;6320087;20;2727492;-47
2023/11/05 10:00:46;;;;;;;;;1.00;1.00;;;;;11.21;100.00;96848.78;6306812;20;1803512;-45
2023/11/05 10:03:13;;;;;;;;;3.00;3.00;;;;;11.34;100.00;96856.31;6320585;20;2738866;-44
2023/11/05 10:05:44;;;;;;;;;1.00;1.00;;;;;11.35;100.00;96882.19;6291794;20;2730506;-44
2023/11/05 10:08:14;;;;;;;;;5.00;2.00;;;;;11.36;100.00;96884.69;6282615;20;2752460;-44
2023/11/05 10:10:44;;;;;;;;;2.50;2.50;;;;;11.33;100.00;96884.22;6287175;20;2741966;-45
2023/11/05 10:13:14;;;;;;;;;3.00;2.00;;;;;11.16;100.00;96886.91;6289338;20;2743004;-45
2023/11/05 10:15:45;;;;;;;;;5.00;3.00;;;;;11.39;100.00;96878.16;6289292;20;2744160;-44
2023/11/05 10:18:17;;;;;;;;;3.00;3.00;;;;;11.43;100.00;96879.50;6287187;20;2735733;-47
2023/11/05 10:20:54;;;;;;;;;2.00;1.00;;;;;11.35;100.00;96855.34;6286290;20;2741086;-47
2023/11/05 10:23:25;;;;;;;;;3.00;3.00;;;;;11.47;100.00;96792.16;6286225;20;2744048;-47
2023/11/05 10:25:55;;;;;;;;;32.50;27.00;;;;;11.38;100.00;96670.47;6285774;20;3461785;-47
2023/11/05 10:28:27;;;;;;;;;4.00;4.00;;;;;11.45;100.00;96635.66;6319520;20;2734703;-50
2023/11/05 10:30:56;;;;;;;;;6.00;4.00;;;;;11.32;100.00;96727.59;6290478;20;2748322;-47
2023/11/05 10:33:31;;;;;;;;;7.00;6.00;;;;;11.39;100.00;96731.22;6289619;20;2744050;-45
2023/11/05 10:35:59;;;;;;;;;1.00;1.00;;;;;11.49;100.00;96712.25;6285405;20;2741965;-48
2023/11/05 10:38:27;;;;;;;;;6.00;2.50;;;;;11.39;100.00;96701.69;6287053;20;2731546;-44
2023/11/05 10:40:57;;;;;;;;;7.00;5.00;;;;;11.37;100.00;96658.06;6282443;20;2748296;-44
2023/11/05 10:43:25;;;;;;;;;6.00;5.00;;;;;11.46;100.00;96633.84;6284429;20;2748233;-42
2023/11/05 10:45:57;;;;;;;;;5.00;5.00;;;;;11.54;100.00;96618.50;6287199;20;2735766;-45
2023/11/05 10:48:25;;;;;;;;;4.00;2.00;;;;;11.61;100.00;96527.28;6285708;20;2755521;-49
2023/11/05 10:50:54;;;;;;;;;6.00;6.00;;;;;11.62;100.00;96537.03;6286426;20;2745240;-48
2023/11/05 10:53:22;;;;;;;;;5.50;3.00;;;;;11.73;100.00;96557.25;6283500;20;2756529;-50
2023/11/05 10:55:51;;;;;;;;;4.00;4.00;;;;;11.88;100.00;96608.44;6291289;20;2754516;-48
2023/11/05 10:58:22;;;;;;;;;4.00;2.50;;;;;11.82;100.00;96637.69;6288854;20;2732598;-47
2023/11/05 11:00:57;;;;;;;;;2.00;2.00;;;;;11.97;100.00;96672.72;6283924;20;2753410;-50
2023/11/05 11:03:26;;;;;;;;;2.00;2.00;;;;;12.06;100.00;96666.28;6287610;20;2730657;-48
2023/11/05 11:06:02;;;;;;;;;3.00;3.00;;;;;12.03;100.00;96712.38;6287974;20;2755527;-50
2023/11/05 11:08:34;;;;;;;;;5.50;3.50;;;;;12.06;100.00;96730.84;6288030;20;2748196;-45
2023/11/05 11:11:14;;;;;;;;;15.50;14.50;;;;;12.36;100.00;96760.56;6285561;20;2799448;-46
2023/11/05 11:13:55;;;;;;;;;27.00;21.50;;;;;12.26;100.00;96754.56;6285071;20;2849284;-49